createdAt,value
2023-02-06T00:01:08.465Z,102323.47
2023-02-06T00:04:30.881Z,102326.00
2023-02-06T00:07:53.388Z,102324.50
2023-02-06T00:11:16.976Z,102330.16
2023-02-06T00:14:39.717Z,102336.41
2023-02-06T00:18:03.883Z,102323.19
2023-02-06T00:21:26.726Z,102323.94
2023-02-06T00:24:49.772Z,102327.34
2023-02-06T00:28:12.330Z,102329.84
2023-02-06T00:31:37.850Z,102338.25
2023-02-06T00:35:03.350Z,102348.69
2023-02-06T00:38:26.289Z,102341.13
2023-02-06T00:41:50.295Z,102352.91
2023-02-06T00:45:13.290Z,102349.19
2023-02-06T00:48:36.907Z,102360.31
2023-02-06T00:52:00.962Z,102352.75
2023-02-06T00:55:23.135Z,102349.13
2023-02-06T00:58:46.135Z,102348.00
2023-02-06T01:02:08.616Z,102340.75
2023-02-06T01:05:33.681Z,102338.41
2023-02-06T01:08:57.722Z,102340.16
2023-02-06T01:12:22.853Z,102343.84
2023-02-06T01:15:45.191Z,102347.34
2023-02-06T01:19:07.743Z,102345.97
2023-02-06T01:22:30.331Z,102342.88
2023-02-06T01:25:54.126Z,102340.59
2023-02-06T01:29:16.695Z,102333.53
2023-02-06T01:32:41.771Z,102338.50
2023-02-06T01:36:04.249Z,102337.97
2023-02-06T01:39:26.789Z,102344.66
2023-02-06T01:42:50.688Z,102364.47
2023-02-06T01:46:13.242Z,102361.13
2023-02-06T01:49:37.619Z,102354.22
2023-02-06T01:53:01.155Z,102341.75
2023-02-06T01:56:24.806Z,102347.44
2023-02-06T01:59:51.150Z,102343.47
2023-02-06T02:03:13.655Z,102349.69
2023-02-06T02:06:36.256Z,102349.09
2023-02-06T02:10:00.670Z,102351.97
2023-02-06T02:13:23.198Z,102349.50
2023-02-06T02:16:52.741Z,102340.50
2023-02-06T02:20:41.812Z,102322.28
2023-02-06T02:24:06.038Z,102324.91
2023-02-06T02:27:54.197Z,102324.41
2023-02-06T02:31:22.579Z,102333.22
2023-02-06T02:35:09.177Z,102323.34
2023-02-06T02:38:39.752Z,102319.44
2023-02-06T02:42:06.703Z,102328.03
2023-02-06T02:45:31.599Z,102330.09
2023-02-06T02:48:55.489Z,102334.53
2023-02-06T02:52:19.994Z,102349.38
2023-02-06T02:55:42.842Z,102350.69
2023-02-06T02:59:06.810Z,102350.59
2023-02-06T03:02:31.798Z,102344.12
2023-02-06T03:06:09.138Z,102349.06
2023-02-06T03:09:47.291Z,102342.63
2023-02-06T03:13:12.187Z,102339.00
2023-02-06T03:16:37.505Z,102344.28
2023-02-06T03:20:00.118Z,102331.94
2023-02-06T03:23:24.554Z,102325.06
2023-02-06T03:26:48.982Z,102323.94
2023-02-06T03:30:12.933Z,102330.91
2023-02-06T03:33:36.577Z,102324.97
2023-02-06T03:36:59.166Z,102326.47
2023-02-06T03:40:21.794Z,102324.87
2023-02-06T03:43:46.980Z,102329.41
2023-02-06T03:47:09.606Z,102328.00
2023-02-06T03:50:32.433Z,102339.47
2023-02-06T03:53:55.357Z,102333.31
2023-02-06T03:57:19.405Z,102342.00
2023-02-06T04:00:44.266Z,102349.25
2023-02-06T04:04:07.468Z,102352.44
2023-02-06T04:07:30.893Z,102353.13
2023-02-06T04:10:53.613Z,102342.78
2023-02-06T04:14:16.063Z,102354.94
2023-02-06T04:17:57.711Z,102346.59
2023-02-06T04:21:22.272Z,102340.59
2023-02-06T04:24:44.855Z,102343.69
2023-02-06T04:28:07.297Z,102342.63
2023-02-06T04:31:30.162Z,102343.94
2023-02-06T04:34:54.020Z,102350.25
2023-02-06T04:38:16.478Z,102354.28
2023-02-06T04:41:41.479Z,102359.19
2023-02-06T04:45:04.327Z,102362.22
2023-02-06T04:48:26.437Z,102360.56
2023-02-06T04:51:50.261Z,102363.53
2023-02-06T04:55:12.680Z,102356.34
2023-02-06T04:58:36.652Z,102373.56
2023-02-06T05:01:59.058Z,102360.53
2023-02-06T05:05:24.372Z,102365.81
2023-02-06T05:08:47.843Z,102367.12
2023-02-06T05:12:13.223Z,102370.81
2023-02-06T05:15:37.051Z,102371.16
2023-02-06T05:19:00.025Z,102370.75
2023-02-06T05:22:22.864Z,102378.13
2023-02-06T05:25:47.216Z,102381.69
2023-02-06T05:29:09.408Z,102390.03
2023-02-06T05:32:31.980Z,102386.69
2023-02-06T05:35:54.652Z,102398.72
2023-02-06T05:39:17.170Z,102384.09
2023-02-06T05:42:40.989Z,102381.56
2023-02-06T05:46:03.557Z,102392.56
2023-02-06T05:49:26.144Z,102390.06
2023-02-06T05:52:49.205Z,102392.13
2023-02-06T05:56:11.785Z,102393.56
2023-02-06T05:59:35.928Z,102388.91
2023-02-06T06:02:58.760Z,102394.94
2023-02-06T06:06:21.732Z,102399.75
2023-02-06T06:09:44.440Z,102389.87
2023-02-06T06:13:08.404Z,102396.81
2023-02-06T06:16:32.048Z,102386.28
2023-02-06T06:19:55.170Z,102391.16
2023-02-06T06:23:17.862Z,102384.50
2023-02-06T06:26:40.506Z,102385.28
2023-02-06T06:30:03.284Z,102392.44
2023-02-06T06:33:27.263Z,102383.75
2023-02-06T06:36:50.015Z,102384.09
2023-02-06T06:40:13.420Z,102382.41
2023-02-06T06:43:36.011Z,102385.38
2023-02-06T06:46:58.807Z,102376.88
2023-02-06T06:50:22.791Z,102365.41
2023-02-06T06:53:45.674Z,102365.97
2023-02-06T06:57:08.357Z,102370.75
2023-02-06T07:00:30.976Z,102377.53
2023-02-06T07:03:53.429Z,102370.22
2023-02-06T07:07:17.220Z,102369.06
2023-02-06T07:10:39.720Z,102374.66
2023-02-06T07:14:02.058Z,102362.75
2023-02-06T07:17:24.391Z,102364.50
2023-02-06T07:20:46.891Z,102371.81
2023-02-06T07:24:10.816Z,102378.19
2023-02-06T07:27:33.507Z,102371.97
2023-02-06T07:30:55.949Z,102371.94
2023-02-06T07:34:18.805Z,102378.63
2023-02-06T07:37:41.314Z,102377.00
2023-02-06T07:41:04.931Z,102387.00
2023-02-06T07:44:27.189Z,102381.78
2023-02-06T07:47:50.181Z,102378.72
2023-02-06T07:51:12.339Z,102377.47
2023-02-06T07:54:34.711Z,102381.47
2023-02-06T07:57:58.656Z,102381.72
2023-02-06T08:01:21.335Z,102375.16
2023-02-06T08:04:44.371Z,102368.84
2023-02-06T08:08:06.798Z,102371.69
2023-02-06T08:11:31.078Z,102372.47
2023-02-06T08:14:54.555Z,102367.91
2023-02-06T08:18:17.296Z,102366.72
2023-02-06T08:21:39.922Z,102366.94
2023-02-06T08:25:02.575Z,102374.31
2023-02-06T08:28:27.582Z,102363.09
2023-02-06T08:31:51.687Z,102364.06
2023-02-06T08:35:13.986Z,102367.47
2023-02-06T08:38:37.200Z,102364.91
2023-02-06T08:41:59.683Z,102361.41
2023-02-06T08:45:22.084Z,102361.34
2023-02-06T08:48:46.150Z,102356.97
2023-02-06T08:52:09.051Z,102363.19
2023-02-06T08:55:31.498Z,102356.97
2023-02-06T08:58:59.570Z,102353.13
2023-02-06T09:02:22.084Z,102358.44
2023-02-06T09:05:46.397Z,102351.44
2023-02-06T09:09:08.851Z,102350.38
2023-02-06T09:12:31.538Z,102351.28
2023-02-06T09:15:54.157Z,102353.44
2023-02-06T09:19:16.920Z,102351.59
2023-02-06T09:22:40.995Z,102350.12
2023-02-06T09:26:04.075Z,102351.66
2023-02-06T09:29:26.496Z,102349.78
2023-02-06T09:32:49.376Z,102365.06
2023-02-06T09:36:13.223Z,102358.56
2023-02-06T09:39:37.520Z,102360.19
2023-02-06T09:42:59.727Z,102352.25
2023-02-06T09:46:23.549Z,102351.00
2023-02-06T09:49:47.389Z,102354.41
2023-02-06T09:53:15.244Z,102354.56
2023-02-06T09:56:42.306Z,102345.91
2023-02-06T10:00:07.376Z,102337.53
2023-02-06T10:03:49.872Z,102333.06
2023-02-06T10:07:24.080Z,102335.56
2023-02-06T10:10:49.082Z,102318.97
2023-02-06T10:14:19.372Z,102316.19
2023-02-06T10:17:46.328Z,102311.63
2023-02-06T10:21:13.597Z,102318.78
2023-02-06T10:24:40.414Z,102317.78
2023-02-06T10:28:04.554Z,102312.59
2023-02-06T10:31:50.575Z,102309.38
2023-02-06T10:35:31.271Z,102318.16
2023-02-06T10:39:07.872Z,102305.06
2023-02-06T10:42:36.624Z,102297.38
2023-02-06T10:46:05.185Z,102304.59
2023-02-06T10:49:31.541Z,102288.31
2023-02-06T10:52:54.223Z,102292.84
2023-02-06T10:56:19.390Z,102292.34
2023-02-06T10:59:44.197Z,102279.50
2023-02-06T11:03:08.259Z,102273.50
2023-02-06T11:06:32.411Z,102271.06
2023-02-06T11:09:55.213Z,102266.53
2023-02-06T11:13:22.952Z,102264.03
2023-02-06T11:16:45.615Z,102261.28
2023-02-06T11:20:18.181Z,102255.78
2023-02-06T11:23:42.278Z,102248.75
2023-02-06T11:27:05.965Z,102243.53
2023-02-06T11:30:33.538Z,102238.72
2023-02-06T11:33:58.675Z,102237.88
2023-02-06T11:37:32.733Z,102235.31
2023-02-06T11:40:58.173Z,102224.72
2023-02-06T11:44:20.736Z,102225.59
2023-02-06T11:47:43.230Z,102234.13
2023-02-06T11:51:06.797Z,102226.09
2023-02-06T11:54:30.090Z,102225.16
2023-02-06T11:58:08.303Z,102222.59
2023-02-06T12:01:31.506Z,102211.09
2023-02-06T12:04:55.019Z,102218.41
2023-02-06T12:08:18.467Z,102200.91
2023-02-06T12:11:44.566Z,102207.00
2023-02-06T12:15:36.210Z,102194.78
2023-02-06T12:18:56.467Z,102194.19
2023-02-06T12:22:19.862Z,102194.31
2023-02-06T12:25:43.307Z,102179.91
2023-02-06T12:29:09.810Z,102180.69
2023-02-06T12:32:35.969Z,102178.75
2023-02-06T12:36:01.028Z,102185.41
2023-02-06T12:39:24.051Z,102178.31
2023-02-06T12:42:48.544Z,102170.91
2023-02-06T12:46:14.544Z,102171.78
2023-02-06T12:49:50.521Z,102176.41
2023-02-06T12:53:16.001Z,102175.03
2023-02-06T12:56:40.613Z,102168.38
2023-02-06T13:00:14.001Z,102176.16
2023-02-06T13:03:36.712Z,102158.81
2023-02-06T13:07:04.700Z,102161.06
2023-02-06T13:10:27.495Z,102161.63
2023-02-06T13:13:50.730Z,102161.56
2023-02-06T13:17:17.093Z,102165.37
2023-02-06T13:20:39.924Z,102152.72
2023-02-06T13:24:24.618Z,102155.44
2023-02-06T13:27:47.235Z,102163.38
2023-02-06T13:31:28.943Z,102161.53
2023-02-06T13:34:53.783Z,102148.69
2023-02-06T13:38:38.180Z,102160.16
2023-02-06T13:42:24.247Z,102158.78
2023-02-06T13:45:48.287Z,102154.59
2023-02-06T13:49:25.349Z,102152.47
2023-02-06T13:52:50.979Z,102155.09
2023-02-06T13:56:33.061Z,102162.56
2023-02-06T13:59:59.274Z,102160.31
2023-02-06T14:03:24.200Z,102164.69
2023-02-06T14:07:03.765Z,102167.97
2023-02-06T14:10:37.998Z,102177.25
2023-02-06T14:14:24.854Z,102186.56
2023-02-06T14:18:13.471Z,102196.28
2023-02-06T14:21:41.901Z,102188.75
2023-02-06T14:25:14.298Z,102188.44
2023-02-06T14:28:48.037Z,102191.50
2023-02-06T14:32:37.009Z,102195.66
2023-02-06T14:36:11.621Z,102188.22
2023-02-06T14:39:40.931Z,102186.13
2023-02-06T14:43:04.579Z,102191.22
2023-02-06T14:46:29.315Z,102195.81
2023-02-06T14:49:52.066Z,102198.09
2023-02-06T14:53:18.948Z,102196.09
2023-02-06T14:56:41.660Z,102193.56
2023-02-06T15:00:07.211Z,102204.41
2023-02-06T15:03:30.192Z,102206.91
2023-02-06T15:06:53.562Z,102208.84
2023-02-06T15:10:18.945Z,102207.19
2023-02-06T15:13:41.453Z,102215.97
2023-02-06T15:17:04.469Z,102225.69
2023-02-06T15:20:28.949Z,102237.00
2023-02-06T15:23:58.107Z,102236.28
2023-02-06T15:27:26.824Z,102246.16
2023-02-06T15:30:53.707Z,102245.31
2023-02-06T15:34:16.925Z,102239.13
2023-02-06T15:37:40.186Z,102251.53
2023-02-06T15:41:04.320Z,102250.63
2023-02-06T15:44:32.578Z,102260.16
2023-02-06T15:47:55.223Z,102269.59
2023-02-06T15:51:22.754Z,102260.81
2023-02-06T15:54:45.783Z,102267.06
2023-02-06T15:58:08.867Z,102268.69
2023-02-06T16:01:36.221Z,102266.72
2023-02-06T16:05:00.411Z,102267.50
2023-02-06T16:08:24.242Z,102268.84
2023-02-06T16:11:51.162Z,102281.34
2023-02-06T16:15:31.874Z,102291.06
2023-02-06T16:18:57.517Z,102303.50
2023-02-06T16:22:25.189Z,102299.62
2023-02-06T16:25:48.549Z,102307.72
2023-02-06T16:29:26.172Z,102304.84
2023-02-06T16:32:49.226Z,102308.56
2023-02-06T16:36:13.845Z,102302.41
2023-02-06T16:39:36.901Z,102302.22
2023-02-06T16:42:59.253Z,102313.75
2023-02-06T16:46:22.231Z,102312.56
2023-02-06T16:49:48.135Z,102311.69
2023-02-06T16:53:16.785Z,102310.09
2023-02-06T16:56:39.695Z,102309.94
2023-02-06T17:00:03.355Z,102313.44
2023-02-06T17:03:26.725Z,102314.97
2023-02-06T17:06:50.439Z,102316.88
2023-02-06T17:10:14.906Z,102312.28
2023-02-06T17:13:38.521Z,102308.66
2023-02-06T17:17:04.472Z,102314.84
2023-02-06T17:20:31.120Z,102317.44
2023-02-06T17:23:54.397Z,102314.41
2023-02-06T17:27:19.743Z,102318.37
2023-02-06T17:30:42.378Z,102315.44
2023-02-06T17:34:05.257Z,102316.25
2023-02-06T17:37:27.733Z,102318.75
2023-02-06T17:40:51.473Z,102322.25
2023-02-06T17:44:18.318Z,102327.53
2023-02-06T17:47:41.764Z,102333.56
2023-02-06T17:51:05.632Z,102339.66
2023-02-06T17:54:28.975Z,102332.66
2023-02-06T17:57:52.171Z,102333.41
2023-02-06T18:01:17.930Z,102339.69
2023-02-06T18:04:41.445Z,102337.59
2023-02-06T18:08:06.955Z,102341.81
2023-02-06T18:11:30.190Z,102349.91
2023-02-06T18:14:53.727Z,102369.06
2023-02-06T18:18:19.215Z,102360.03
2023-02-06T18:21:42.475Z,102357.09
2023-02-06T18:25:06.197Z,102365.31
2023-02-06T18:28:29.320Z,102369.94
2023-02-06T18:31:53.903Z,102355.13
2023-02-06T18:35:21.170Z,102373.00
2023-02-06T18:38:45.567Z,102377.06
2023-02-06T18:42:31.747Z,102380.91
2023-02-06T18:45:55.639Z,102375.66
2023-02-06T18:49:21.167Z,102387.62
2023-02-06T18:52:48.015Z,102384.62
2023-02-06T18:56:11.798Z,102386.72
2023-02-06T18:59:35.960Z,102380.13
2023-02-06T19:03:01.695Z,102386.59
2023-02-06T19:06:29.073Z,102382.66
2023-02-06T19:09:57.932Z,102398.06
2023-02-06T19:13:23.303Z,102396.97
2023-02-06T19:16:52.722Z,102393.44
2023-02-06T19:20:16.978Z,102395.19
2023-02-06T19:23:41.145Z,102384.69
2023-02-06T19:27:07.086Z,102391.63
2023-02-06T19:30:33.102Z,102398.03
2023-02-06T19:33:58.120Z,102403.66
2023-02-06T19:37:22.722Z,102410.59
2023-02-06T19:40:49.113Z,102408.03
2023-02-06T19:44:16.867Z,102419.41
2023-02-06T19:47:43.465Z,102421.22
2023-02-06T19:51:07.965Z,102427.03
2023-02-06T19:54:33.574Z,102428.28
2023-02-06T19:57:56.807Z,102427.09
2023-02-06T20:01:22.260Z,102423.09
2023-02-06T20:04:47.544Z,102426.41
2023-02-06T20:08:11.179Z,102420.31
2023-02-06T20:11:35.180Z,102423.09
2023-02-06T20:14:59.545Z,102430.37
2023-02-06T20:18:25.922Z,102437.84
2023-02-06T20:21:49.997Z,102438.88
2023-02-06T20:25:14.946Z,102452.06
2023-02-06T20:28:38.060Z,102445.47
2023-02-06T20:32:11.362Z,102440.19
2023-02-06T20:35:39.629Z,102447.09
2023-02-06T20:39:04.651Z,102444.19
2023-02-06T20:42:29.000Z,102445.97
2023-02-06T20:45:53.614Z,102447.37
2023-02-06T20:49:17.969Z,102453.44
2023-02-06T20:52:43.111Z,102450.97
2023-02-06T20:56:09.103Z,102459.84
2023-02-06T20:59:32.919Z,102458.72
2023-02-06T21:02:57.158Z,102458.81
2023-02-06T21:06:21.032Z,102466.75
2023-02-06T21:09:45.024Z,102464.03
2023-02-06T21:13:08.312Z,102461.78
2023-02-06T21:16:31.558Z,102472.59
2023-02-06T21:19:54.665Z,102480.06
2023-02-06T21:23:17.672Z,102485.19
2023-02-06T21:26:42.313Z,102487.47
2023-02-06T21:30:05.046Z,102487.94
2023-02-06T21:33:28.265Z,102479.66
2023-02-06T21:36:51.185Z,102472.91
2023-02-06T21:40:15.573Z,102472.44
2023-02-06T21:43:39.743Z,102477.87
2023-02-06T21:47:02.965Z,102476.34
2023-02-06T21:50:25.906Z,102474.00
2023-02-06T21:53:48.317Z,102474.16
2023-02-06T21:57:11.032Z,102480.63
2023-02-06T22:00:35.146Z,102477.94
2023-02-06T22:03:58.195Z,102483.22
2023-02-06T22:07:24.804Z,102481.47
2023-02-06T22:10:47.845Z,102487.94
2023-02-06T22:14:12.434Z,102490.06
2023-02-06T22:17:36.886Z,102492.09
2023-02-06T22:21:04.579Z,102493.66
2023-02-06T22:24:27.320Z,102490.75
2023-02-06T22:27:49.799Z,102504.28
2023-02-06T22:31:13.812Z,102504.00
2023-02-06T22:34:38.698Z,102512.16
2023-02-06T22:38:01.781Z,102519.69
2023-02-06T22:41:24.508Z,102508.31
2023-02-06T22:44:47.141Z,102517.06
2023-02-06T22:48:09.310Z,102524.31
2023-02-06T22:51:33.272Z,102528.09
2023-02-06T22:54:55.892Z,102518.81
2023-02-06T22:58:18.582Z,102525.13
2023-02-06T23:01:42.365Z,102526.88
2023-02-06T23:05:05.741Z,102526.09
2023-02-06T23:08:29.837Z,102529.84
2023-02-06T23:11:52.891Z,102523.31
2023-02-06T23:15:15.351Z,102520.59
2023-02-06T23:18:38.132Z,102520.31
2023-02-06T23:22:00.701Z,102523.91
2023-02-06T23:25:24.644Z,102519.03
2023-02-06T23:28:47.322Z,102522.91
2023-02-06T23:32:10.766Z,102524.81
2023-02-06T23:35:36.764Z,102533.00
2023-02-06T23:39:01.857Z,102528.34
2023-02-06T23:42:25.699Z,102533.84
2023-02-06T23:45:48.811Z,102537.94
2023-02-06T23:49:11.488Z,102537.41
2023-02-06T23:52:33.834Z,102536.91
2023-02-06T23:55:56.310Z,102534.50
2023-02-06T23:59:20.117Z,102538.78
